Time;durP1;ratioP1;P1;durP2;ratioP2;P2;SDS_P1;SDS_P2;PMS_P1;PMS_P2;Temp;Humidity;BMP_temperature;BMP_pressure;BME280_temperature;BME280_humidity;BME280_pressure;Samples;Min_cycle;Max_cycle;Signal;HPM_P1;HPM_P2
2023/01/20 00:00:11;;;;;;;12.45;5.93;;;1.00;99.90;;;;;;5114892;27;20420;-92
2023/01/20 00:02:37;;;;;;;14.30;6.80;;;1.00;99.90;;;;;;5094519;28;20334;-92
2023/01/20 00:05:03;;;;;;;14.10;6.70;;;1.00;99.90;;;;;;5129659;27;20512;-92
2023/01/20 00:07:29;;;;;;;13.65;6.75;;;;;;;;;;5112543;28;20046;-92
2023/01/20 00:09:54;;;;;;;14.80;6.50;;;0.90;99.90;;;;;;5102271;27;20035;-93
2023/01/20 00:12:20;;;;;;;13.65;6.15;;;0.90;99.90;;;;;;5112398;27;20242;-92
2023/01/20 00:14:46;;;;;;;14.45;5.80;;;;;;;;;;5093966;28;20027;-92
2023/01/20 00:17:12;;;;;;;12.43;5.05;;;;;;;;;;5113989;27;20096;-90
2023/01/20 00:19:37;;;;;;;12.88;6.13;;;0.80;99.90;;;;;;5094207;28;20036;-90
2023/01/20 00:22:03;;;;;;;11.95;5.90;;;0.70;99.90;;;;;;5094895;28;20028;-90
2023/01/20 00:24:29;;;;;;;11.13;5.50;;;0.70;99.90;;;;;;5128229;27;20521;-90
2023/01/20 00:26:54;;;;;;;11.73;5.18;;;0.70;99.90;;;;;;5096928;28;20570;-90
2023/01/20 00:29:20;;;;;;;13.80;5.68;;;0.70;99.90;;;;;;5096599;28;20433;-90
2023/01/20 00:31:46;;;;;;;12.27;5.93;;;0.80;99.90;;;;;;5094634;28;20081;-90
2023/01/20 00:34:11;;;;;;;11.40;5.30;;;0.80;99.90;;;;;;5093656;28;20039;-90
2023/01/20 00:36:37;;;;;;;10.73;5.03;;;0.90;99.90;;;;;;5111524;28;20089;-90
2023/01/20 00:39:03;;;;;;;12.88;6.32;;;1.00;99.90;;;;;;5094321;28;20040;-90
2023/01/20 00:41:29;;;;;;;12.80;6.07;;;1.00;99.90;;;;;;5113000;27;20042;-89
2023/01/20 00:43:54;;;;;;;12.32;5.20;;;1.00;99.90;;;;;;5131383;27;20046;-90
2023/01/20 00:46:21;;;;;;;13.10;6.28;;;1.10;99.90;;;;;;5131463;27;20031;-91
2023/01/20 00:48:47;;;;;;;11.40;5.07;;;1.10;99.90;;;;;;5115191;27;20432;-90
2023/01/20 00:51:14;;;;;;;14.63;6.88;;;1.20;99.90;;;;;;5132259;27;20400;-90
2023/01/20 00:53:40;;;;;;;14.68;7.13;;;1.20;99.90;;;;;;5130649;27;20043;-90
2023/01/20 00:56:06;;;;;;;13.95;7.63;;;1.20;99.90;;;;;;5114815;27;20048;-91
2023/01/20 00:58:31;;;;;;;16.13;7.82;;;1.30;99.90;;;;;;5130748;27;20119;-90
2023/01/20 01:00:57;;;;;;;18.13;8.55;;;1.30;99.90;;;;;;5114215;27;20070;-90
2023/01/20 01:03:23;;;;;;;16.48;8.77;;;1.30;99.90;;;;;;5130966;27;20043;-90
2023/01/20 01:05:49;;;;;;;14.80;8.23;;;1.30;99.90;;;;;;5114081;27;20042;-90
2023/01/20 01:08:14;;;;;;;17.17;8.93;;;1.30;99.90;;;;;;5114740;27;20066;-90
2023/01/20 01:10:40;;;;;;;16.95;8.73;;;1.30;99.90;;;;;;5130382;27;20039;-90
2023/01/20 01:13:07;;;;;;;13.35;6.57;;;1.30;99.90;;;;;;5109888;28;20405;-90
2023/01/20 01:15:33;;;;;;;17.73;8.00;;;1.40;99.90;;;;;;5093591;28;20042;-90
2023/01/20 01:17:58;;;;;;;16.08;7.55;;;1.40;99.90;;;;;;5122037;27;20035;-90
2023/01/20 01:20:25;;;;;;;16.00;7.80;;;1.40;99.90;;;;;;5114045;27;20099;-90
2023/01/20 01:22:51;;;;;;;15.20;7.22;;;1.40;99.90;;;;;;5112685;27;20039;-89
2023/01/20 01:25:17;;;;;;;16.13;7.45;;;1.40;99.90;;;;;;5114185;27;20092;-89
2023/01/20 01:27:42;;;;;;;17.27;7.03;;;1.40;99.90;;;;;;5114409;27;20042;-89
2023/01/20 01:30:09;;;;;;;15.07;7.43;;;1.40;99.90;;;;;;5130570;27;20039;-90
2023/01/20 01:32:34;;;;;;;13.85;6.95;;;1.40;99.90;;;;;;5113574;27;20035;-89
2023/01/20 01:35:00;;;;;;;15.00;7.57;;;1.30;99.90;;;;;;5112866;27;20122;-90
2023/01/20 01:37:27;;;;;;;15.18;6.95;;;1.30;99.90;;;;;;5113884;27;20121;-90
2023/01/20 01:39:52;;;;;;;14.60;6.07;;;1.30;99.90;;;;;;5129719;27;20031;-90
2023/01/20 01:42:21;;;;;;;13.75;6.95;;;1.30;99.90;;;;;;5129940;27;20080;-91
2023/01/20 01:45:27;;;;;;;13.10;5.82;;;1.30;99.90;;;;;;5129881;27;20401;-90
2023/01/20 01:48:01;;;;;;;10.77;5.32;;;1.30;99.90;;;;;;5015629;28;20048;-90
2023/01/20 01:50:37;;;;;;;12.68;6.22;;;1.30;99.90;;;;;;5030203;28;20195;-90
2023/01/20 01:53:04;;;;;;;13.60;6.65;;;1.30;99.90;;;;;;4995772;28;20220;-90
2023/01/20 01:55:33;;;;;;;15.18;7.18;;;1.20;99.90;;;;;;5003262;28;20132;-90
2023/01/20 01:58:01;;;;;;;10.68;5.40;;;1.30;99.90;;;;;;5015715;28;20037;-91
2023/01/20 02:00:27;;;;;;;13.52;6.20;;;1.20;99.90;;;;;;5030487;28;20119;-91
2023/01/20 02:02:54;;;;;;;13.60;6.85;;;1.20;99.90;;;;;;5001702;28;20133;-90
2023/01/20 02:05:21;;;;;;;12.93;6.45;;;1.20;99.90;;;;;;4995426;28;20052;-90
2023/01/20 02:07:48;;;;;;;13.55;6.80;;;1.20;99.90;;;;;;5003687;28;20102;-91
2023/01/20 02:10:15;;;;;;;12.50;5.65;;;1.20;99.90;;;;;;5031753;28;20033;-90
2023/01/20 02:12:43;;;;;;;11.57;6.13;;;1.20;99.90;;;;;;5015078;28;20041;-91
2023/01/20 02:15:09;;;;;;;11.50;6.10;;;1.10;99.90;;;;;;5030256;28;20049;-90
2023/01/20 02:17:52;;;;;;;10.73;4.72;;;1.10;99.90;;;;;;5015418;28;20048;-89
2023/01/20 02:20:24;;;;;;;12.23;6.28;;;1.10;99.90;;;;;;5031121;28;20509;-90
2023/01/20 02:23:19;;;;;;;12.57;6.35;;;1.20;99.90;;;;;;5109244;27;20581;-89
2023/01/20 02:26:25;;;;;;;13.27;5.90;;;1.20;99.90;;;;;;5045243;27;20123;-90
2023/01/20 02:29:19;;;;;;;13.93;6.18;;;1.20;99.90;;;;;;5019291;28;20041;-90
2023/01/20 02:32:06;;;;;;;11.80;5.72;;;1.20;99.90;;;;;;5134756;27;20031;-90
2023/01/20 02:34:51;;;;;;;13.15;6.40;;;1.20;99.90;;;;;;5116565;27;20601;-91
2023/01/20 02:37:33;;;;;;;12.10;5.10;;;1.20;99.90;;;;;;5116684;27;20039;-91
2023/01/20 02:40:28;;;;;;;12.23;5.40;;;1.10;99.90;;;;;;5133297;27;20087;-90
2023/01/20 02:43:06;;;;;;;10.25;5.43;;;1.20;99.90;;;;;;5116342;27;20043;-91
2023/01/20 02:46:10;;;;;;;13.75;6.50;;;1.10;99.90;;;;;;5134252;27;20063;-90
2023/01/20 02:48:44;;;;;;;13.02;7.45;;;1.20;99.90;;;;;;5117025;27;20028;-91
2023/01/20 02:51:22;;;;;;;14.63;7.05;;;1.10;99.90;;;;;;5133907;27;20424;-89
2023/01/20 02:53:53;;;;;;;14.05;6.88;;;1.10;99.90;;;;;;5133447;27;20035;-90
2023/01/20 02:56:22;;;;;;;13.77;7.00;;;1.10;99.90;;;;;;5133347;27;20027;-90
2023/01/20 02:58:56;;;;;;;16.13;7.35;;;1.10;99.90;;;;;;5134069;27;20480;-90
2023/01/20 03:01:39;;;;;;;15.38;6.70;;;1.20;99.90;;;;;;5115772;27;20035;-90
2023/01/20 03:04:08;;;;;;;13.55;7.10;;;1.10;99.90;;;;;;5116128;27;20047;-90
2023/01/20 03:06:37;;;;;;;12.57;6.13;;;1.20;99.90;;;;;;5116261;27;20039;-90
2023/01/20 03:09:07;;;;;;;12.98;5.78;;;1.20;99.90;;;;;;5117083;27;20043;-90
2023/01/20 03:11:35;;;;;;;12.73;5.97;;;1.20;99.90;;;;;;5117103;27;20491;-90
2023/01/20 03:14:06;;;;;;;13.75;7.70;;;1.20;99.90;;;;;;5133319;27;20043;-90
2023/01/20 03:16:32;;;;;;;14.38;7.05;;;1.10;99.90;;;;;;5133082;27;20039;-91
2023/01/20 03:18:57;;;;;;;11.00;5.88;;;1.10;99.90;;;;;;5116274;27;20113;-90
2023/01/20 03:21:23;;;;;;;12.55;6.15;;;1.10;99.90;;;;;;5133108;27;20047;-91
2023/01/20 03:23:56;;;;;;;12.60;6.03;;;1.10;99.90;;;;;;5131453;27;20063;-90
2023/01/20 03:26:22;;;;;;;;;;;1.10;99.90;;;;;;5116961;27;20056;-90
2023/01/20 03:28:48;;;;;;;12.80;5.95;;;1.10;99.90;;;;;;5115781;27;19915;-90
2023/01/20 03:31:27;;;;;;;14.50;6.20;;;1.10;99.90;;;;;;5116355;27;20043;-90
2023/01/20 03:33:57;;;;;;;11.88;6.35;;;1.20;99.90;;;;;;5114507;27;20035;-91
2023/01/20 03:36:26;;;;;;;13.48;6.43;;;1.10;99.90;;;;;;5132387;27;20496;-91
2023/01/20 03:38:53;;;;;;;14.23;6.65;;;1.20;99.90;;;;;;5116272;27;20046;-90
2023/01/20 03:41:47;;;;;;;14.07;6.70;;;1.20;99.90;;;;;;5114711;27;20042;-90
2023/01/20 03:44:31;;;;;;;14.52;6.40;;;1.20;99.90;;;;;;5132701;27;20078;-90
2023/01/20 03:47:09;;;;;;;13.25;6.80;;;1.20;99.90;;;;;;5115347;27;20043;-90
2023/01/20 03:49:47;;;;;;;15.63;6.07;;;1.20;99.90;;;;;;5116167;27;20126;-90
2023/01/20 03:52:25;;;;;;;12.05;5.70;;;1.20;99.90;;;;;;5115414;27;20061;-90
2023/01/20 03:55:01;;;;;;;12.63;6.20;;;1.20;99.90;;;;;;5132633;27;20081;-90
2023/01/20 03:57:40;;;;;;;14.45;6.82;;;1.20;99.90;;;;;;5115281;27;20126;-90
2023/01/20 04:00:09;;;;;;;13.75;7.25;;;1.20;99.90;;;;;;5115641;27;20084;-90
2023/01/20 04:02:36;;;;;;;14.68;7.05;;;1.20;99.90;;;;;;5114741;27;20031;-90
2023/01/20 04:05:04;;;;;;;13.90;7.20;;;1.10;99.90;;;;;;5114719;27;20046;-90
2023/01/20 04:07:31;;;;;;;15.15;6.30;;;1.20;99.90;;;;;;5133236;27;20496;-90
2023/01/20 04:10:04;;;;;;;13.07;6.78;;;1.10;99.90;;;;;;5131997;27;20488;-90
2023/01/20 04:12:30;;;;;;;13.73;6.93;;;1.10;99.90;;;;;;5115289;27;20077;-90
2023/01/20 04:14:56;;;;;;;14.48;7.65;;;1.20;99.90;;;;;;5113937;27;20100;-90
2023/01/20 04:17:26;;;;;;;12.82;6.78;;;1.20;99.90;;;;;;5132575;27;20062;-90
2023/01/20 04:19:53;;;;;;;15.77;6.88;;;1.20;99.90;;;;;;5114937;27;20038;-89
2023/01/20 04:22:26;;;;;;;12.32;6.03;;;1.10;99.90;;;;;;5131151;27;20033;-90
2023/01/20 04:25:07;;;;;;;12.98;5.70;;;1.20;99.90;;;;;;5114562;27;20035;-90
2023/01/20 04:27:32;;;;;;;12.55;5.97;;;1.20;99.90;;;;;;5114527;27;20038;-91
2023/01/20 04:29:58;;;;;;;12.20;5.80;;;1.10;99.90;;;;;;5115561;27;20043;-90
2023/01/20 04:32:23;;;;;;;13.73;6.40;;;1.20;99.90;;;;;;5105617;27;20035;-90
2023/01/20 04:34:50;;;;;;;12.95;6.13;;;1.20;99.90;;;;;;5115151;27;20543;-90
2023/01/20 04:37:16;;;;;;;13.43;7.13;;;1.10;99.90;;;;;;5114007;27;20035;-90
2023/01/20 04:39:42;;;;;;;12.70;6.25;;;1.10;99.90;;;;;;5100462;28;20038;-90
2023/01/20 04:42:09;;;;;;;14.43;6.68;;;1.20;99.90;;;;;;5094058;28;20446;-90
2023/01/20 04:44:35;;;;;;;16.40;7.53;;;1.20;99.90;;;;;;5112416;27;20083;-91
2023/01/20 04:47:00;;;;;;;14.43;6.95;;;1.20;99.90;;;;;;5114814;27;20054;-90
2023/01/20 04:49:26;;;;;;;16.80;7.75;;;1.20;99.90;;;;;;5114779;27;20046;-90
2023/01/20 04:51:52;;;;;;;15.68;7.63;;;1.20;99.90;;;;;;5114789;27;20492;-90
2023/01/20 04:54:17;;;;;;;15.65;7.28;;;1.20;99.90;;;;;;5114188;27;20035;-90
2023/01/20 04:56:43;;;;;;;15.73;7.68;;;1.20;99.90;;;;;;5114454;27;20032;-90
2023/01/20 04:59:08;;;;;;;14.52;7.13;;;1.20;99.90;;;;;;5114663;27;20541;-91
2023/01/20 05:01:34;;;;;;;13.45;6.07;;;1.20;99.90;;;;;;5112914;27;20035;-91
2023/01/20 05:04:00;;;;;;;15.38;7.78;;;1.20;99.90;;;;;;5131072;27;20039;-90
2023/01/20 05:06:25;;;;;;;13.57;6.97;;;1.20;99.90;;;;;;5113991;27;20035;-90
2023/01/20 05:08:51;;;;;;;18.90;8.88;;;1.20;99.90;;;;;;5114344;27;20043;-90
2023/01/20 05:11:16;;;;;;;17.75;8.48;;;1.20;99.90;;;;;;5114478;27;20386;-90
2023/01/20 05:13:42;;;;;;;15.80;7.95;;;1.20;99.90;;;;;;5113879;27;20047;-90
2023/01/20 05:16:09;;;;;;;18.50;8.18;;;1.20;99.90;;;;;;5113266;27;20042;-90
2023/01/20 05:18:34;;;;;;;18.90;9.43;;;1.20;99.90;;;;;;5114075;27;20097;-90
2023/01/20 05:21:00;;;;;;;16.15;7.63;;;1.20;99.90;;;;;;5113680;27;20524;-91
2023/01/20 05:23:26;;;;;;;15.45;7.50;;;1.30;99.90;;;;;;5113374;27;20432;-90
2023/01/20 05:25:52;;;;;;;15.30;7.35;;;1.20;99.90;;;;;;5113508;27;20130;-90
2023/01/20 05:28:18;;;;;;;18.65;9.10;;;1.20;99.90;;;;;;5114609;27;20437;-91
2023/01/20 05:30:45;;;;;;;15.45;7.30;;;1.20;99.90;;;;;;5113461;27;20042;-90
2023/01/20 05:33:10;;;;;;;17.67;8.82;;;1.30;99.90;;;;;;5114050;27;20065;-90
2023/01/20 05:35:39;;;;;;;20.23;10.02;;;1.20;99.90;;;;;;5113755;27;20500;-90
2023/01/20 05:38:05;;;;;;;18.80;8.43;;;1.20;99.90;;;;;;5112952;27;20037;-90
2023/01/20 05:40:31;;;;;;;21.67;10.13;;;1.20;99.90;;;;;;5131067;27;20039;-90
2023/01/20 05:43:03;;;;;;;20.05;9.98;;;1.30;99.90;;;;;;5111980;27;20031;-91
2023/01/20 05:45:30;;;;;;;16.73;7.73;;;1.30;99.90;;;;;;5113644;27;20031;-90
2023/01/20 05:47:57;;;;;;;19.00;10.65;;;1.20;99.90;;;;;;5130627;27;20308;-90
2023/01/20 05:50:23;;;;;;;19.65;10.13;;;1.20;99.90;;;;;;5113423;27;20062;-90
2023/01/20 05:52:49;;;;;;;21.90;10.70;;;1.20;99.90;;;;;;5113579;27;20035;-91
2023/01/20 05:55:15;;;;;;;22.83;10.40;;;1.30;99.90;;;;;;5130280;27;20042;-91
2023/01/20 05:57:41;;;;;;;24.00;11.07;;;1.30;99.90;;;;;;5129912;27;20045;-90
2023/01/20 06:00:07;;;;;;;24.98;11.18;;;1.30;99.90;;;;;;5130999;27;20074;-90
2023/01/20 06:02:33;;;;;;;22.25;10.38;;;1.30;99.90;;;;;;5121516;27;20035;-90
2023/01/20 06:05:00;;;;;;;20.02;9.68;;;1.20;99.90;;;;;;5089020;28;20067;-90
2023/01/20 06:07:27;;;;;;;22.13;9.95;;;1.30;99.90;;;;;;5097908;27;20032;-90
2023/01/20 06:09:53;;;;;;;27.42;12.25;;;1.20;99.90;;;;;;5094033;28;20031;-90
2023/01/20 06:12:19;;;;;;;25.38;12.75;;;1.30;99.90;;;;;;5093995;28;20100;-90
2023/01/20 06:14:44;;;;;;;24.58;12.57;;;1.20;99.90;;;;;;5110896;28;20420;-89
2023/01/20 06:17:10;;;;;;;28.13;13.50;;;1.20;99.90;;;;;;5127553;28;20081;-90
2023/01/20 06:19:35;;;;;;;22.48;11.73;;;1.30;99.90;;;;;;5110071;28;20100;-90
2023/01/20 06:22:01;;;;;;;27.95;13.43;;;1.30;99.90;;;;;;5111734;28;20034;-90
2023/01/20 06:24:27;;;;;;;26.23;13.32;;;1.30;99.90;;;;;;5110843;28;20493;-91
2023/01/20 06:26:53;;;;;;;26.35;13.05;;;1.30;99.90;;;;;;5112398;28;20074;-91
2023/01/20 06:29:19;;;;;;;25.23;12.57;;;1.30;99.90;;;;;;5112552;28;20542;-90
2023/01/20 06:31:45;;;;;;;28.48;13.13;;;1.30;99.90;;;;;;5114573;28;20617;-89
2023/01/20 06:34:11;;;;;;;25.40;12.30;;;1.40;99.90;;;;;;5108708;28;20516;-90
2023/01/20 06:36:37;;;;;;;26.63;14.13;;;1.40;99.90;;;;;;5122085;28;20042;-91
2023/01/20 06:39:02;;;;;;;24.40;12.38;;;1.40;99.90;;;;;;5112311;28;20039;-91
2023/01/20 06:41:28;;;;;;;27.52;12.40;;;1.40;99.90;;;;;;5111425;28;20031;-90
2023/01/20 06:43:54;;;;;;;23.25;12.60;;;1.40;99.90;;;;;;5111208;28;20049;-90
2023/01/20 06:46:19;;;;;;;27.88;13.68;;;1.40;99.90;;;;;;5111551;28;20087;-89
2023/01/20 06:48:45;;;;;;;29.05;13.95;;;1.40;99.90;;;;;;5128866;28;20032;-91
2023/01/20 06:51:14;;;;;;;28.33;12.85;;;1.40;99.90;;;;;;5112925;28;20039;-89
2023/01/20 06:53:40;;;;;;;28.90;13.10;;;1.40;99.90;;;;;;5129284;28;20443;-91
2023/01/20 06:56:06;;;;;;;23.63;12.95;;;1.40;99.90;;;;;;5129972;28;20031;-89
2023/01/20 06:58:32;;;;;;;30.00;14.30;;;1.40;99.90;;;;;;5129091;28;20039;-90
2023/01/20 07:01:07;;;;;;;29.52;13.77;;;1.40;99.90;;;;;;5111620;28;20031;-90
2023/01/20 07:03:34;;;;;;;30.15;15.13;;;1.50;99.90;;;;;;5111563;28;20035;-90
2023/01/20 07:06:03;;;;;;;28.63;14.18;;;1.50;99.90;;;;;;5128956;28;20043;-90
2023/01/20 07:08:29;;;;;;;28.27;14.77;;;1.50;99.90;;;;;;5115187;27;20039;-90
2023/01/20 07:10:55;;;;;;;28.42;14.68;;;1.50;99.90;;;;;;5115744;27;20090;-90
2023/01/20 07:13:21;;;;;;;31.35;14.45;;;1.50;99.90;;;;;;5112889;27;20070;-90
2023/01/20 07:15:47;;;;;;;29.45;14.18;;;1.50;99.90;;;;;;5129269;27;20043;-91
2023/01/20 07:18:12;;;;;;;29.33;14.20;;;1.50;99.90;;;;;;5115557;27;20369;-90
2023/01/20 07:20:38;;;;;;;31.90;14.93;;;1.50;99.90;;;;;;5101017;28;20032;-90
2023/01/20 07:23:04;;;;;;;28.85;14.75;;;1.50;99.90;;;;;;5094094;28;20122;-89
2023/01/20 07:25:30;;;;;;;26.80;13.98;;;1.60;99.90;;;;;;5122244;27;20455;-89
2023/01/20 07:27:58;;;;;;;31.77;15.25;;;1.60;99.90;;;;;;5125971;27;20142;-90
2023/01/20 07:30:24;;;;;;;35.03;13.18;;;1.60;99.90;;;;;;5126108;27;20043;-90
2023/01/20 07:32:50;;;;;;;29.70;15.02;;;1.60;99.90;;;;;;5102292;27;20031;-90
2023/01/20 07:35:16;;;;;;;29.27;13.68;;;1.60;99.90;;;;;;5133276;27;20180;-89
2023/01/20 07:37:42;;;;;;;30.60;13.40;;;1.60;99.90;;;;;;5132238;27;20136;-90
2023/01/20 07:40:08;;;;;;;29.13;13.40;;;1.60;99.90;;;;;;5114607;27;20625;-91
2023/01/20 07:42:37;;;;;;;30.83;12.48;;;1.60;99.90;;;;;;5114324;27;20039;-90
2023/01/20 07:45:04;;;;;;;26.58;12.57;;;1.60;99.90;;;;;;5131815;27;20579;-90
2023/01/20 07:47:30;;;;;;;26.75;12.82;;;1.60;99.90;;;;;;5115134;27;20100;-91
2023/01/20 07:49:55;;;;;;;31.50;14.52;;;1.60;99.90;;;;;;5133080;27;20647;-90
2023/01/20 07:52:21;;;;;;;28.23;14.20;;;1.60;99.90;;;;;;5114891;27;20043;-91
2023/01/20 07:54:47;;;;;;;30.10;14.38;;;1.60;99.90;;;;;;5115939;27;20511;-90
2023/01/20 07:57:12;;;;;;;26.65;14.32;;;1.60;99.90;;;;;;5131973;27;20103;-90
2023/01/20 07:59:38;;;;;;;34.55;14.38;;;1.60;99.90;;;;;;5114743;27;20035;-91
2023/01/20 08:02:04;;;;;;;29.80;14.40;;;1.60;99.90;;;;;;5114464;27;20484;-89
2023/01/20 08:04:30;;;;;;;29.20;13.23;;;1.60;99.90;;;;;;5113863;27;20036;-90
2023/01/20 08:06:55;;;;;;;27.52;15.07;;;1.60;99.90;;;;;;5114303;27;20043;-89
2023/01/20 08:09:21;;;;;;;23.98;12.57;;;1.60;99.90;;;;;;5114151;27;20416;-90
2023/01/20 08:11:47;;;;;;;35.70;14.35;;;1.60;99.90;;;;;;5132406;27;20039;-90
2023/01/20 08:14:12;;;;;;;28.08;13.63;;;1.60;99.90;;;;;;5130974;27;20035;-91
2023/01/20 08:16:38;;;;;;;27.67;11.82;;;1.60;99.90;;;;;;5132795;27;20046;-90
2023/01/20 08:19:03;;;;;;;30.55;13.75;;;1.60;99.90;;;;;;5113421;27;20540;-90
2023/01/20 08:21:30;;;;;;;28.17;13.52;;;1.60;99.90;;;;;;5115138;27;20043;-90
2023/01/20 08:23:58;;;;;;;27.27;12.80;;;1.60;99.90;;;;;;5130965;27;20091;-90
2023/01/20 08:26:26;;;;;;;28.40;12.80;;;1.60;99.90;;;;;;5112859;27;20038;-90
2023/01/20 08:28:53;;;;;;;24.27;11.93;;;1.70;99.90;;;;;;5114299;27;20492;-90
2023/01/20 08:31:21;;;;;;;28.98;13.27;;;1.70;99.90;;;;;;5131498;27;20535;-90
2023/01/20 08:33:50;;;;;;;28.15;14.50;;;1.70;99.90;;;;;;5113755;27;20043;-90
2023/01/20 08:36:32;;;;;;;26.40;12.30;;;1.60;99.90;;;;;;5132384;27;20408;-90
2023/01/20 08:39:01;;;;;;;27.90;13.38;;;1.60;99.90;;;;;;5113088;27;20032;-90
2023/01/20 08:41:29;;;;;;;25.80;13.68;;;1.60;99.90;;;;;;5114545;27;20038;-90
2023/01/20 08:43:57;;;;;;;28.00;13.90;;;1.60;99.90;;;;;;5129907;27;20039;-90
2023/01/20 08:46:23;;;;;;;27.33;12.18;;;1.60;99.90;;;;;;5114035;27;20071;-90
2023/01/20 08:48:50;;;;;;;26.63;11.90;;;1.60;99.90;;;;;;5131003;27;20066;-90
2023/01/20 08:51:18;;;;;;;24.30;12.35;;;1.60;99.90;;;;;;5113173;27;20083;-91
2023/01/20 08:53:44;;;;;;;28.80;14.18;;;1.60;99.90;;;;;;5131474;27;20078;-90
2023/01/20 08:56:14;;;;;;;28.95;13.93;;;1.60;99.90;;;;;;5114355;27;20651;-90
2023/01/20 08:58:40;;;;;;;30.63;15.27;;;1.60;99.90;;;;;;5130297;27;20039;-90
2023/01/20 09:01:18;;;;;;;31.67;13.25;;;1.60;99.90;;;;;;5131493;27;20039;-90
2023/01/20 09:03:44;;;;;;;28.02;13.63;;;1.60;99.90;;;;;;5128295;27;20506;-90
2023/01/20 09:06:10;;;;;;;25.30;12.82;;;1.60;99.90;;;;;;5112873;27;20027;-90
2023/01/20 09:08:37;;;;;;;31.05;13.57;;;1.70;99.90;;;;;;5113702;27;20069;-90
2023/01/20 09:11:05;;;;;;;28.42;13.43;;;1.70;99.90;;;;;;5123109;27;20032;-90
2023/01/20 09:13:31;;;;;;;33.72;14.63;;;1.70;99.90;;;;;;5093246;28;20039;-90
2023/01/20 09:15:57;;;;;;;31.52;13.50;;;1.70;99.90;;;;;;5103206;27;20559;-89
2023/01/20 09:18:22;;;;;;;28.90;12.55;;;1.70;99.90;;;;;;5113389;27;20123;-90
2023/01/20 09:20:48;;;;;;;29.80;14.02;;;1.70;99.90;;;;;;5113699;27;20031;-91
2023/01/20 09:23:13;;;;;;;29.83;12.80;;;1.70;99.90;;;;;;5093149;28;20067;-91
2023/01/20 09:25:39;;;;;;;32.05;14.25;;;1.70;99.90;;;;;;5092308;28;20546;-90
2023/01/20 09:28:05;;;;;;;32.58;16.02;;;1.70;99.90;;;;;;5096680;27;20071;-90
2023/01/20 09:30:30;;;;;;;31.05;13.75;;;1.70;99.90;;;;;;5112811;28;20039;-90
2023/01/20 09:32:59;;;;;;;29.88;14.32;;;1.70;99.90;;;;;;5130864;27;20031;-89
2023/01/20 09:35:25;;;;;;;33.95;14.27;;;1.80;99.90;;;;;;5112848;27;20046;-90
2023/01/20 09:43:53;;;;;;;32.70;15.18;;;1.80;99.90;;;;;;5128448;27;20425;-90
2023/01/20 09:46:34;;;;;;;32.10;14.13;;;1.80;99.90;;;;;;5112466;27;20043;-89
2023/01/20 09:54:59;;;;;;;32.05;13.43;;;1.80;99.90;;;;;;5118684;27;20039;-91
2023/01/20 09:57:30;;;;;;;37.05;15.02;;;1.80;99.90;;;;;;5113604;27;20038;-91
2023/01/20 10:00:04;;;;;;;36.63;15.15;;;1.80;99.90;;;;;;5112818;27;20035;-91
2023/01/20 10:02:34;;;;;;;31.17;13.60;;;1.90;99.90;;;;;;5129246;27;20039;-91
2023/01/20 10:05:11;;;;;;;27.80;13.52;;;1.90;99.90;;;;;;5112559;27;20118;-90
2023/01/20 10:07:54;;;;;;;28.98;12.73;;;1.90;99.90;;;;;;5128815;27;20038;-89
2023/01/20 10:10:39;;;;;;;26.30;12.00;;;1.90;99.90;;;;;;5112950;28;20122;-90
2023/01/20 10:13:13;;;;;;;29.17;12.30;;;1.90;99.90;;;;;;5112897;28;20042;-90
2023/01/20 10:15:43;;;;;;;27.92;12.95;;;1.90;99.90;;;;;;5129911;28;20031;-90
2023/01/20 10:18:14;;;;;;;28.90;12.95;;;1.90;99.90;;;;;;5112867;28;20031;-89
2023/01/20 10:20:49;;;;;;;27.55;11.88;;;1.90;99.90;;;;;;5112337;28;20066;-90
2023/01/20 10:23:24;;;;;;;27.60;13.80;;;2.00;99.90;;;;;;5128685;28;20480;-90
2023/01/20 10:26:13;;;;;;;30.48;11.52;;;2.00;99.90;;;;;;5129264;28;20050;-91
2023/01/20 10:28:48;;;;;;;28.08;12.68;;;2.00;99.90;;;;;;5110565;28;20075;-90
2023/01/20 10:31:20;;;;;;;29.20;12.52;;;2.00;99.90;;;;;;5113438;28;20121;-90
2023/01/20 10:33:46;;;;;;;29.63;12.53;;;2.00;99.90;;;;;;5129247;28;20060;-90
2023/01/20 10:36:22;;;;;;;27.60;12.27;;;2.10;99.90;;;;;;5112830;28;20277;-90
2023/01/20 10:38:53;;;;;;;30.02;11.65;;;2.10;99.90;;;;;;5129814;28;20035;-90
2023/01/20 10:41:38;;;;;;;28.63;12.90;;;2.10;99.90;;;;;;5111651;27;20061;-90
2023/01/20 10:44:13;;;;;;;28.13;12.23;;;2.10;99.90;;;;;;5115960;27;20047;-90
2023/01/20 10:46:44;;;;;;;28.02;10.77;;;2.10;99.90;;;;;;5114441;27;20070;-90
2023/01/20 10:49:19;;;;;;;29.17;12.75;;;2.10;99.90;;;;;;5116633;27;20158;-90
2023/01/20 10:52:00;;;;;;;25.95;11.88;;;2.10;99.90;;;;;;5133814;27;20127;-90
2023/01/20 10:54:32;;;;;;;28.90;13.30;;;2.10;99.90;;;;;;5115859;27;20157;-89
2023/01/20 10:57:00;;;;;;;31.77;12.75;;;2.10;99.90;;;;;;5117078;27;20043;-89
2023/01/20 10:59:48;;;;;;;31.85;13.98;;;2.20;99.90;;;;;;5115435;27;20038;-89
2023/01/20 11:02:19;;;;;;;28.05;13.57;;;2.20;99.90;;;;;;5116081;27;20039;-89
2023/01/20 11:04:51;;;;;;;32.50;12.40;;;2.20;99.90;;;;;;5114378;27;20035;-89
2023/01/20 11:07:18;;;;;;;26.83;11.48;;;2.20;99.90;;;;;;5115783;27;20035;-89
2023/01/20 11:09:46;;;;;;;27.40;11.55;;;2.20;99.90;;;;;;5115517;27;20119;-90
2023/01/20 11:12:16;;;;;;;28.90;12.05;;;2.30;99.90;;;;;;5116550;27;20031;-89
2023/01/20 11:14:43;;;;;;;28.50;12.88;;;2.30;99.90;;;;;;5116636;27;20131;-90
2023/01/20 11:17:15;;;;;;;27.50;11.68;;;2.30;99.90;;;;;;5106646;27;20027;-89
2023/01/20 11:19:46;;;;;;;26.70;12.13;;;2.30;99.90;;;;;;5115661;27;20099;-89
2023/01/20 11:22:19;;;;;;;29.23;11.73;;;2.40;99.90;;;;;;5115037;27;20031;-90
2023/01/20 11:24:45;;;;;;;26.70;11.95;;;2.40;99.90;;;;;;5114732;27;20047;-89
2023/01/20 11:27:20;;;;;;;27.60;12.32;;;2.40;99.90;;;;;;5132289;27;20728;-89
2023/01/20 11:29:51;;;;;;;27.30;12.80;;;2.40;99.90;;;;;;5114737;27;20155;-89
2023/01/20 11:32:30;;;;;;;30.13;12.05;;;2.40;99.90;;;;;;5115554;27;20047;-90
2023/01/20 11:34:57;;;;;;;28.00;11.70;;;2.40;99.90;;;;;;5115932;27;20046;-89
2023/01/20 11:37:26;;;;;;;28.33;13.80;;;2.40;99.90;;;;;;5095150;28;20027;-89
2023/01/20 11:39:54;;;;;;;26.15;13.23;;;2.50;99.90;;;;;;5094912;27;20046;-89
2023/01/20 11:42:23;;;;;;;24.17;11.23;;;2.50;99.90;;;;;;5114398;27;20104;-89
2023/01/20 11:45:03;;;;;;;26.98;11.27;;;2.50;99.90;;;;;;5114757;27;20500;-90
2023/01/20 11:47:35;;;;;;;29.17;12.48;;;2.50;99.90;;;;;;5131558;27;20039;-90
2023/01/20 11:50:07;;;;;;;26.15;11.80;;;2.50;99.90;;;;;;5115677;27;20045;-90
2023/01/20 11:52:39;;;;;;;31.33;13.23;;;2.50;99.90;;;;;;5115113;27;20603;-90
2023/01/20 11:55:23;;;;;;;28.38;13.10;;;2.50;99.90;;;;;;5114223;27;20690;-89
2023/01/20 11:57:51;;;;;;;27.38;13.38;;;2.50;99.90;;;;;;5115666;27;20035;-89
2023/01/20 12:00:28;;;;;;;28.25;12.90;;;2.60;99.90;;;;;;5114078;27;20086;-90
2023/01/20 12:03:09;;;;;;;26.92;12.32;;;2.60;99.90;;;;;;5132048;27;20096;-90
2023/01/20 12:05:47;;;;;;;26.25;11.75;;;2.60;99.90;;;;;;5114539;27;20035;-91
2023/01/20 12:08:22;;;;;;;28.98;12.45;;;2.60;99.90;;;;;;5131272;27;20045;-92
2023/01/20 12:10:49;;;;;;;28.60;13.70;;;2.60;99.90;;;;;;5114925;27;20462;-91
2023/01/20 12:13:20;;;;;;;30.50;13.80;;;2.70;99.90;;;;;;5131764;27;20119;-92
2023/01/20 12:15:53;;;;;;;32.33;14.27;;;2.70;99.90;;;;;;5113920;27;20071;-91
2023/01/20 12:18:46;;;;;;;27.42;12.32;;;2.70;99.90;;;;;;5109859;27;20027;-92
2023/01/20 12:21:16;;;;;;;31.88;14.00;;;2.70;99.90;;;;;;5087759;28;20039;-92
2023/01/20 12:24:06;;;;;;;27.42;11.73;;;2.70;99.90;;;;;;5110534;27;20047;-92
2023/01/20 12:26:34;;;;;;;24.65;12.23;;;2.70;99.90;;;;;;5090469;28;20043;-91
2023/01/20 12:29:24;;;;;;;23.50;11.45;;;2.70;99.90;;;;;;5110795;28;20400;-90
2023/01/20 12:31:50;;;;;;;26.23;11.73;;;2.70;99.90;;;;;;5096343;28;20039;-92
2023/01/20 12:34:27;;;;;;;23.65;11.10;;;2.70;99.90;;;;;;5093736;28;20032;-92
2023/01/20 12:36:56;;;;;;;33.22;12.98;;;2.80;99.90;;;;;;5125989;27;20035;-91
2023/01/20 12:39:33;;;;;;;25.40;11.95;;;2.70;99.90;;;;;;5096395;28;20046;-92
2023/01/20 12:42:23;;;;;;;26.98;12.02;;;2.70;99.90;;;;;;5125828;27;20054;-92
2023/01/20 12:45:02;;;;;;;25.73;12.93;;;2.70;99.90;;;;;;5092406;28;20489;-91
2023/01/20 12:47:59;;;;;;;24.58;11.02;;;2.70;99.90;;;;;;5092668;28;20046;-92
2023/01/20 12:50:49;;;;;;;27.80;10.40;;;2.70;99.90;;;;;;5111421;27;20035;-92
2023/01/20 12:53:37;;;;;;;27.58;11.60;;;2.70;99.90;;;;;;5091027;28;20035;-91
2023/01/20 12:56:21;;;;;;;24.38;12.02;;;2.70;99.90;;;;;;5091107;27;20035;-92
2023/01/20 12:59:06;;;;;;;25.10;11.80;;;2.70;99.90;;;;;;5110567;28;20036;-91
2023/01/20 13:01:52;;;;;;;27.85;13.23;;;2.70;99.90;;;;;;5093440;28;20036;-92
2023/01/20 13:04:32;;;;;;;28.85;12.65;;;2.70;99.90;;;;;;5130418;27;20050;-92
2023/01/20 13:07:19;;;;;;;27.38;13.20;;;2.70;99.90;;;;;;5130163;27;20035;-92
2023/01/20 13:09:51;;;;;;;28.83;13.15;;;2.70;99.90;;;;;;5112469;27;20046;-91